createdAt,value
2022-12-18T00:02:12.905Z,24.33
2022-12-18T00:07:15.768Z,26.67
2022-12-18T00:17:41.624Z,26.43
2022-12-18T00:22:44.565Z,26.80
2022-12-18T00:27:47.523Z,24.40
2022-12-18T00:32:50.947Z,25.67
2022-12-18T00:37:54.113Z,22.70
2022-12-18T00:42:57.666Z,21.33
2022-12-18T00:48:00.875Z,20.63
2022-12-18T00:53:04.167Z,20.77
2022-12-18T00:58:07.258Z,17.30
2022-12-18T01:03:14.686Z,22.77
2022-12-18T01:08:19.925Z,23.57
2022-12-18T01:13:22.982Z,21.33
2022-12-18T01:18:27.205Z,24.63
2022-12-18T01:23:30.317Z,25.70
2022-12-18T01:28:33.550Z,25.63
2022-12-18T01:33:37.043Z,25.13
2022-12-18T01:38:40.343Z,23.03
2022-12-18T01:43:49.606Z,24.57
2022-12-18T01:49:01.734Z,24.57
2022-12-18T01:54:04.991Z,24.57
2022-12-18T01:59:09.523Z,24.03
2022-12-18T02:04:38.961Z,23.30
2022-12-18T02:10:02.981Z,24.37
2022-12-18T02:15:41.053Z,23.33
2022-12-18T02:20:56.984Z,22.30
2022-12-18T02:26:13.136Z,21.77
2022-12-18T02:31:19.549Z,21.47
2022-12-18T02:36:23.350Z,21.97
2022-12-18T02:41:27.173Z,20.77
2022-12-18T02:46:34.022Z,20.07
2022-12-18T02:51:52.506Z,20.73
2022-12-18T02:56:57.376Z,19.03
2022-12-18T03:02:04.039Z,18.57
2022-12-18T03:07:11.821Z,17.20
2022-12-18T03:12:27.962Z,16.37
2022-12-18T03:17:34.862Z,14.20
2022-12-18T03:22:39.023Z,13.13
2022-12-18T03:27:46.760Z,13.47
2022-12-18T03:33:31.426Z,14.70
2022-12-18T03:38:34.805Z,10.80
2022-12-18T03:43:47.911Z,13.40
2022-12-18T03:48:55.983Z,14.43
2022-12-18T03:54:01.269Z,14.70
2022-12-18T03:59:14.117Z,13.40
2022-12-18T04:04:17.813Z,12.17
2022-12-18T04:09:21.925Z,14.20
2022-12-18T04:14:25.908Z,13.00
2022-12-18T04:19:32.204Z,12.60
2022-12-18T04:24:36.847Z,11.00
2022-12-18T04:29:48.100Z,12.53
2022-12-18T04:34:52.487Z,11.73
2022-12-18T04:39:55.704Z,11.33
2022-12-18T04:45:08.883Z,10.43
2022-12-18T04:50:12.036Z,10.43
2022-12-18T04:55:15.153Z,10.00
2022-12-18T05:00:18.338Z,10.07
2022-12-18T05:05:21.401Z,9.43
2022-12-18T05:10:24.346Z,8.80
2022-12-18T05:15:32.069Z,8.93
2022-12-18T05:20:35.294Z,9.30
2022-12-18T05:25:38.535Z,8.97
2022-12-18T05:30:41.873Z,9.70
2022-12-18T05:35:45.472Z,8.90
2022-12-18T05:40:52.743Z,8.03
2022-12-18T05:45:58.130Z,8.70
2022-12-18T05:51:08.721Z,8.50
2022-12-18T05:56:14.867Z,8.37
2022-12-18T06:01:21.215Z,6.73
2022-12-18T06:06:26.388Z,5.43
2022-12-18T06:11:29.646Z,8.47
2022-12-18T06:16:33.023Z,8.93
2022-12-18T06:21:36.411Z,9.87
2022-12-18T06:26:42.503Z,9.67
2022-12-18T06:31:45.757Z,7.63
2022-12-18T06:36:48.759Z,9.00
2022-12-18T06:41:52.600Z,8.70
2022-12-18T06:46:55.573Z,9.57
2022-12-18T06:51:58.580Z,8.90
2022-12-18T06:57:01.581Z,9.13
2022-12-18T07:02:04.866Z,11.27
2022-12-18T07:07:08.261Z,11.27
2022-12-18T07:12:11.700Z,12.53
2022-12-18T07:17:14.980Z,10.80
2022-12-18T07:22:18.354Z,19.73
2022-12-18T07:27:21.368Z,14.17
2022-12-18T07:32:24.832Z,16.80
2022-12-18T07:37:27.886Z,14.20
2022-12-18T07:42:33.548Z,13.63
2022-12-18T07:47:37.655Z,14.60
2022-12-18T07:52:40.936Z,12.30
2022-12-18T07:57:55.172Z,16.07
2022-12-18T08:03:01.128Z,16.00
2022-12-18T08:08:04.597Z,16.10
2022-12-18T08:13:07.665Z,20.20
2022-12-18T08:18:14.208Z,15.43
2022-12-18T08:23:20.951Z,14.70
2022-12-18T08:28:23.906Z,13.57
2022-12-18T08:33:27.533Z,15.37
2022-12-18T08:38:30.935Z,11.50
2022-12-18T08:43:52.499Z,12.80
2022-12-18T08:48:57.199Z,12.13
2022-12-18T08:54:00.435Z,12.17
2022-12-18T08:59:03.813Z,11.37
2022-12-18T09:04:07.965Z,8.63
2022-12-18T09:09:12.264Z,12.90
2022-12-18T09:14:15.363Z,7.40
2022-12-18T09:19:18.581Z,11.70
2022-12-18T09:24:21.587Z,22.47
2022-12-18T09:29:24.780Z,17.07
2022-12-18T09:34:28.156Z,12.30
2022-12-18T09:39:31.348Z,13.67
2022-12-18T09:44:44.478Z,12.03
2022-12-18T09:49:55.084Z,11.70
2022-12-18T09:55:03.862Z,18.27
2022-12-18T10:00:24.413Z,16.93
2022-12-18T10:05:37.874Z,15.77
2022-12-18T10:10:51.746Z,14.23
2022-12-18T10:16:21.105Z,14.90
2022-12-18T10:21:33.932Z,20.70
2022-12-18T10:26:36.936Z,14.27
2022-12-18T10:31:40.197Z,13.40
2022-12-18T10:36:43.651Z,12.10
2022-12-18T10:41:46.555Z,14.23
2022-12-18T10:46:57.252Z,14.37
2022-12-18T10:52:07.286Z,14.93
2022-12-18T10:57:18.062Z,15.33
2022-12-18T11:02:39.015Z,12.57
2022-12-18T11:07:55.396Z,10.83
2022-12-18T11:13:23.541Z,9.90
2022-12-18T11:18:36.260Z,10.77
2022-12-18T11:23:51.410Z,13.40
2022-12-18T11:29:18.279Z,9.80
2022-12-18T11:34:31.416Z,11.47
2022-12-18T11:39:42.313Z,8.13
2022-12-18T11:44:54.314Z,9.67
2022-12-18T11:50:03.223Z,10.57
2022-12-18T11:55:16.521Z,10.27
2022-12-18T12:00:20.987Z,12.77
2022-12-18T12:05:41.875Z,15.37
2022-12-18T12:11:04.289Z,10.20
2022-12-18T12:16:23.702Z,10.53
2022-12-18T12:22:11.470Z,14.50
2022-12-18T12:27:17.827Z,11.57
2022-12-18T12:32:27.707Z,11.60
2022-12-18T12:37:57.377Z,9.77
2022-12-18T12:43:14.327Z,11.23
2022-12-18T12:48:30.262Z,11.60
2022-12-18T12:53:36.174Z,8.60
2022-12-18T12:58:42.187Z,8.20
2022-12-18T13:03:48.886Z,8.43
2022-12-18T13:08:58.355Z,7.63
2022-12-18T13:14:02.029Z,8.47
2022-12-18T13:19:06.016Z,8.37
2022-12-18T13:24:28.975Z,12.13
2022-12-18T13:29:43.909Z,10.10
2022-12-18T13:34:47.167Z,9.10
2022-12-18T13:39:50.317Z,8.03
2022-12-18T13:44:53.537Z,7.97
2022-12-18T13:49:57.876Z,8.37
2022-12-18T13:55:02.692Z,8.63
2022-12-18T14:00:21.251Z,12.40
2022-12-18T14:05:39.516Z,8.00
2022-12-18T14:10:50.312Z,11.10
2022-12-18T14:15:53.877Z,12.73
2022-12-18T14:21:03.008Z,60.13
2022-12-18T14:26:31.272Z,11.53
2022-12-18T14:31:34.673Z,10.33
2022-12-18T14:36:37.980Z,11.30
2022-12-18T14:41:41.143Z,10.67
2022-12-18T14:46:47.064Z,9.87
2022-12-18T14:51:52.992Z,10.50
2022-12-18T14:57:08.002Z,10.63
2022-12-18T15:02:20.411Z,13.43
2022-12-18T15:07:25.186Z,14.97
2022-12-18T15:12:36.703Z,11.90
2022-12-18T15:17:40.423Z,10.80
2022-12-18T15:22:43.782Z,11.27
2022-12-18T15:27:50.725Z,10.93
2022-12-18T15:33:27.744Z,11.27
2022-12-18T15:38:31.181Z,11.33
2022-12-18T15:43:37.958Z,30.50
2022-12-18T15:48:46.199Z,10.63
2022-12-18T15:53:51.004Z,12.03
2022-12-18T15:58:54.137Z,18.47
2022-12-18T16:03:57.210Z,12.10
2022-12-18T16:09:00.638Z,12.63
2022-12-18T16:14:03.992Z,11.27
2022-12-18T16:19:07.273Z,16.33
2022-12-18T16:24:23.033Z,12.43
2022-12-18T16:29:28.867Z,15.53
2022-12-18T16:34:35.856Z,11.97
2022-12-18T16:39:41.987Z,11.97
2022-12-18T16:44:45.744Z,19.10
2022-12-18T16:49:52.025Z,15.80
2022-12-18T16:54:55.083Z,12.70
2022-12-18T17:00:04.472Z,18.07
2022-12-18T17:05:08.799Z,17.30
2022-12-18T17:10:12.303Z,18.23
2022-12-18T17:15:15.838Z,18.60
2022-12-18T17:20:20.108Z,15.13
2022-12-18T17:25:24.097Z,15.10
2022-12-18T17:30:28.392Z,18.03
2022-12-18T17:35:31.570Z,13.23
2022-12-18T17:40:35.695Z,14.00
2022-12-18T17:45:40.009Z,14.43
2022-12-18T17:50:47.277Z,17.30
2022-12-18T17:55:58.274Z,15.40
2022-12-18T18:01:01.394Z,14.73
2022-12-18T18:06:04.763Z,22.30
2022-12-18T18:11:29.981Z,44.23
2022-12-18T18:16:41.791Z,15.50
2022-12-18T18:21:47.072Z,16.10
2022-12-18T18:26:50.519Z,18.23
2022-12-18T18:31:53.964Z,17.50
2022-12-18T18:36:57.088Z,12.83
2022-12-18T18:42:03.048Z,16.70
2022-12-18T18:47:09.415Z,15.10
2022-12-18T18:52:12.786Z,23.70
2022-12-18T18:57:20.899Z,37.93
2022-12-18T19:02:24.886Z,23.70
2022-12-18T19:07:30.616Z,18.93
2022-12-18T19:12:53.000Z,20.30
2022-12-18T19:17:58.380Z,18.93
2022-12-18T19:23:01.655Z,20.67
2022-12-18T19:28:05.280Z,20.07
2022-12-18T19:33:34.459Z,24.33
2022-12-18T19:38:33.335Z,23.63
2022-12-18T19:43:39.743Z,26.10
2022-12-18T19:48:44.768Z,26.50
2022-12-18T19:53:52.416Z,25.20
2022-12-18T19:59:00.239Z,25.83
2022-12-18T20:04:03.514Z,27.93
2022-12-18T20:09:07.348Z,26.50
2022-12-18T20:14:12.245Z,24.60
2022-12-18T20:20:45.908Z,27.03
2022-12-18T20:24:38.322Z,23.43
2022-12-18T20:29:41.807Z,24.03
2022-12-18T20:34:44.875Z,20.63
2022-12-18T20:39:48.396Z,22.27
2022-12-18T20:44:51.599Z,21.60
2022-12-18T20:49:54.712Z,21.03
2022-12-18T20:54:57.646Z,21.33
2022-12-18T21:00:02.832Z,26.00
2022-12-18T21:05:06.330Z,24.07
2022-12-18T21:10:09.815Z,23.60
2022-12-18T21:15:13.217Z,24.20
2022-12-18T21:20:18.151Z,25.37
2022-12-18T21:25:21.928Z,22.87
2022-12-18T21:30:24.682Z,25.87
2022-12-18T21:35:27.894Z,23.23
2022-12-18T21:40:34.058Z,22.97
2022-12-18T21:45:37.168Z,25.07
2022-12-18T21:50:39.917Z,26.20
2022-12-18T21:55:42.681Z,24.47
2022-12-18T22:00:48.625Z,23.27
2022-12-18T22:05:57.083Z,25.60
2022-12-18T22:11:12.809Z,24.13
2022-12-18T22:16:15.821Z,23.53
2022-12-18T22:21:32.945Z,25.13
2022-12-18T22:26:40.094Z,26.07
2022-12-18T22:31:43.611Z,29.57
2022-12-18T22:36:48.506Z,22.67
2022-12-18T22:41:51.926Z,24.93
2022-12-18T22:47:06.003Z,24.63
2022-12-18T22:52:13.421Z,25.93
2022-12-18T22:57:18.489Z,21.50
2022-12-18T23:02:21.717Z,22.93
2022-12-18T23:07:26.009Z,23.97
2022-12-18T23:12:29.098Z,23.73
2022-12-18T23:17:34.956Z,24.07
2022-12-18T23:22:38.112Z,25.13
2022-12-18T23:28:21.741Z,32.53
2022-12-18T23:33:24.949Z,29.67
2022-12-18T23:38:32.413Z,25.97
2022-12-18T23:43:35.822Z,28.63
2022-12-18T23:48:39.624Z,27.07
2022-12-18T23:53:43.728Z,28.70
2022-12-18T23:58:48.907Z,26.30
